createdAt,value
2019-05-07T00:02:27.833Z,5.33
2019-05-07T00:07:25.202Z,5.30
2019-05-07T00:09:54.295Z,6.50
2019-05-07T00:12:23.224Z,5.00
2019-05-07T00:15:00.922Z,4.72
2019-05-07T00:17:23.001Z,5.17
2019-05-07T00:19:52.592Z,5.90
2019-05-07T00:22:22.705Z,8.85
2019-05-07T00:24:55.627Z,6.60
2019-05-07T00:27:24.717Z,8.88
2019-05-07T00:29:53.812Z,8.30
2019-05-07T00:32:22.908Z,7.12
2019-05-07T00:35:02.550Z,6.60
2019-05-07T00:37:36.047Z,5.53
2019-05-07T00:40:13.011Z,7.20
2019-05-07T00:42:49.288Z,6.55
2019-05-07T00:45:23.854Z,6.55
2019-05-07T00:47:53.112Z,5.75
2019-05-07T00:50:25.696Z,4.50
2019-05-07T00:52:57.717Z,5.50
2019-05-07T00:55:29.729Z,5.25
2019-05-07T00:58:02.864Z,5.90
2019-05-07T01:00:35.394Z,4.60
2019-05-07T01:03:07.957Z,6.75
2019-05-07T01:05:37.051Z,7.55
2019-05-07T01:08:06.146Z,6.75
2019-05-07T01:10:35.240Z,6.40
2019-05-07T01:13:04.337Z,6.60
2019-05-07T01:15:34.596Z,6.83
2019-05-07T01:18:07.539Z,6.28
2019-05-07T01:20:36.943Z,8.05
2019-05-07T01:23:06.038Z,9.10
2019-05-07T01:25:35.134Z,10.50
2019-05-07T01:28:04.227Z,12.35
2019-05-07T01:30:35.870Z,21.93
2019-05-07T01:33:06.426Z,17.25
2019-05-07T01:35:45.948Z,12.98
2019-05-07T01:38:16.534Z,12.45
2019-05-07T01:40:45.572Z,13.00
2019-05-07T01:43:14.692Z,10.05
2019-05-07T01:45:49.082Z,9.15
2019-05-07T01:48:15.622Z,10.85
2019-05-07T01:50:44.718Z,8.15
2019-05-07T01:53:13.914Z,10.13
2019-05-07T01:55:43.009Z,9.10
2019-05-07T01:58:12.591Z,11.43
2019-05-07T02:00:42.486Z,13.53
2019-05-07T02:03:23.117Z,29.67
2019-05-07T02:06:13.191Z,20.88
2019-05-07T02:08:44.061Z,17.25
2019-05-07T02:11:14.569Z,30.88
2019-05-07T02:13:43.640Z,24.18
2019-05-07T02:16:12.735Z,22.27
2019-05-07T02:18:42.472Z,32.05
2019-05-07T02:21:12.850Z,15.83
2019-05-07T02:23:42.602Z,17.27
2019-05-07T02:26:13.395Z,16.85
2019-05-07T02:28:43.553Z,50.00
2019-05-07T02:31:15.044Z,17.15
2019-05-07T02:33:43.847Z,9.48
2019-05-07T02:36:23.409Z,12.55
2019-05-07T02:39:12.891Z,12.45
2019-05-07T02:41:44.063Z,18.57
2019-05-07T02:44:13.925Z,15.03
2019-05-07T02:46:53.997Z,12.10
2019-05-07T02:49:34.762Z,30.10
2019-05-07T02:52:08.517Z,14.63
2019-05-07T02:55:03.981Z,31.80
2019-05-07T02:57:33.936Z,15.95
2019-05-07T03:00:04.583Z,19.32
2019-05-07T03:02:33.630Z,31.02
2019-05-07T03:05:05.324Z,13.13
2019-05-07T03:07:33.854Z,11.18
2019-05-07T03:10:03.746Z,28.25
2019-05-07T03:12:33.694Z,12.00
2019-05-07T03:15:04.546Z,14.18
2019-05-07T03:17:34.446Z,25.05
2019-05-07T03:20:09.138Z,12.15
2019-05-07T03:22:38.362Z,22.22
2019-05-07T03:25:08.986Z,7.78
2019-05-07T03:27:39.210Z,12.73
2019-05-07T03:30:10.006Z,9.48
2019-05-07T03:32:47.678Z,13.10
2019-05-07T03:35:28.342Z,12.05
2019-05-07T03:37:58.170Z,9.30
2019-05-07T03:40:27.827Z,11.57
2019-05-07T03:43:05.800Z,13.65
2019-05-07T03:45:36.876Z,7.70
2019-05-07T03:48:13.310Z,13.43
2019-05-07T03:50:43.432Z,8.98
2019-05-07T03:53:14.185Z,8.75
2019-05-07T03:55:44.948Z,14.13
2019-05-07T03:58:14.830Z,11.57
2019-05-07T04:00:46.701Z,18.00
2019-05-07T04:03:19.307Z,21.42
2019-05-07T04:05:46.541Z,55.90
2019-05-07T04:08:15.837Z,16.15
2019-05-07T04:10:50.002Z,14.30
2019-05-07T04:13:23.953Z,10.03
2019-05-07T04:15:53.558Z,11.90
2019-05-07T04:18:23.746Z,10.72
2019-05-07T04:20:54.004Z,8.88
2019-05-07T04:23:23.633Z,11.75
2019-05-07T04:25:57.786Z,8.23
2019-05-07T04:28:28.271Z,10.10
2019-05-07T04:30:58.261Z,16.77
2019-05-07T04:33:28.788Z,12.23
2019-05-07T04:36:04.745Z,13.55
2019-05-07T04:38:33.842Z,12.37
2019-05-07T04:41:03.799Z,9.38
2019-05-07T04:43:33.787Z,9.23
2019-05-07T04:46:03.452Z,10.88
2019-05-07T04:48:34.028Z,10.60
2019-05-07T04:51:05.058Z,10.85
2019-05-07T04:53:34.146Z,7.83
2019-05-07T04:56:03.533Z,11.43
2019-05-07T04:58:33.966Z,7.47
2019-05-07T05:01:04.296Z,10.58
2019-05-07T05:03:34.696Z,11.08
2019-05-07T05:06:04.225Z,7.95
2019-05-07T05:08:33.334Z,8.43
2019-05-07T05:11:03.291Z,10.18
2019-05-07T05:13:33.316Z,10.45
2019-05-07T05:16:04.082Z,7.45
2019-05-07T05:18:34.227Z,8.73
2019-05-07T05:21:12.090Z,9.13
2019-05-07T05:23:49.525Z,7.00
2019-05-07T05:26:18.690Z,10.25
2019-05-07T05:28:47.887Z,10.40
2019-05-07T05:31:17.944Z,8.03
2019-05-07T05:33:49.681Z,8.15
2019-05-07T05:36:23.873Z,10.43
2019-05-07T05:38:53.048Z,7.92
2019-05-07T05:41:26.028Z,6.65
2019-05-07T05:44:02.264Z,6.80
2019-05-07T05:46:32.461Z,10.55
2019-05-07T05:49:02.610Z,8.40
2019-05-07T05:51:34.623Z,6.50
2019-05-07T05:54:22.362Z,9.08
2019-05-07T05:57:09.064Z,7.75
2019-05-07T05:59:49.146Z,7.70
2019-05-07T06:02:27.942Z,9.63
2019-05-07T06:05:12.599Z,13.98
2019-05-07T06:07:48.794Z,9.25
2019-05-07T06:10:19.599Z,9.70
2019-05-07T06:12:57.084Z,6.65
2019-05-07T06:15:47.274Z,10.15
2019-05-07T06:18:32.825Z,11.20
2019-05-07T06:21:12.564Z,12.58
2019-05-07T06:23:52.893Z,5.30
2019-05-07T06:26:22.784Z,5.05
2019-05-07T06:28:51.991Z,8.90
2019-05-07T06:31:22.203Z,11.88
2019-05-07T06:33:55.176Z,14.30
2019-05-07T06:36:29.493Z,15.30
2019-05-07T06:39:01.946Z,20.05
2019-05-07T06:41:48.981Z,15.43
2019-05-07T06:44:19.668Z,17.35
2019-05-07T06:46:52.626Z,13.15
2019-05-07T06:51:52.831Z,16.77
2019-05-07T06:54:22.680Z,8.50
2019-05-07T06:56:52.369Z,10.00
2019-05-07T06:59:26.471Z,6.62
2019-05-07T07:02:14.510Z,4.95
2019-05-07T07:04:49.238Z,8.60
2019-05-07T07:07:29.812Z,6.12
2019-05-07T07:09:54.471Z,9.98
2019-05-07T07:12:26.125Z,6.17
2019-05-07T07:14:59.438Z,5.47
2019-05-07T07:17:28.558Z,5.17
2019-05-07T07:19:57.630Z,5.33
2019-05-07T07:22:27.849Z,4.45
2019-05-07T07:24:57.969Z,10.03
2019-05-07T07:27:28.499Z,6.08
2019-05-07T07:29:59.043Z,7.17
2019-05-07T07:32:32.829Z,3.62
2019-05-07T07:35:05.039Z,8.08
2019-05-07T07:37:43.013Z,8.60
2019-05-07T07:40:22.749Z,4.42
2019-05-07T07:42:52.100Z,6.10
2019-05-07T07:45:25.236Z,3.45
2019-05-07T07:47:56.694Z,6.45
2019-05-07T07:50:28.245Z,6.90
2019-05-07T07:52:58.176Z,5.30
2019-05-07T07:55:28.591Z,6.80
2019-05-07T07:58:06.377Z,4.05
2019-05-07T08:00:48.889Z,4.28
2019-05-07T08:03:19.010Z,4.95
2019-05-07T08:05:51.855Z,3.47
2019-05-07T08:08:21.943Z,5.47
2019-05-07T08:10:52.095Z,6.05
2019-05-07T08:13:22.919Z,4.65
2019-05-07T08:15:53.846Z,5.15
2019-05-07T08:18:28.305Z,12.37
2019-05-07T08:20:57.415Z,7.60
2019-05-07T08:23:28.967Z,6.62
2019-05-07T08:26:02.975Z,6.53
2019-05-07T08:28:32.108Z,4.15
2019-05-07T08:31:02.965Z,6.33
2019-05-07T08:33:36.649Z,7.55
2019-05-07T08:36:11.994Z,5.15
2019-05-07T08:38:55.605Z,6.08
2019-05-07T08:41:28.613Z,4.62
2019-05-07T08:44:12.370Z,4.47
2019-05-07T08:46:46.103Z,5.83
2019-05-07T08:49:17.883Z,6.37
2019-05-07T08:51:51.971Z,6.45
2019-05-07T08:54:22.683Z,6.37
2019-05-07T08:56:54.679Z,3.87
2019-05-07T08:59:27.260Z,7.05
2019-05-07T09:01:56.288Z,3.80
2019-05-07T09:04:25.344Z,4.00
2019-05-07T09:06:58.434Z,3.98
2019-05-07T09:09:28.453Z,8.18
2019-05-07T09:11:59.457Z,4.62
2019-05-07T09:14:35.349Z,5.90
2019-05-07T09:17:06.100Z,15.15
2019-05-07T09:19:48.356Z,4.00
2019-05-07T09:22:13.735Z,9.28
2019-05-07T09:27:22.291Z,7.33
2019-05-07T09:29:58.992Z,5.20
2019-05-07T09:32:44.472Z,5.67
2019-05-07T09:35:35.585Z,4.60
2019-05-07T09:38:08.999Z,5.08
2019-05-07T09:43:25.908Z,4.75
2019-05-07T09:45:55.001Z,3.72
2019-05-07T09:48:27.885Z,6.35
2019-05-07T09:50:59.445Z,7.65
2019-05-07T09:53:29.558Z,6.45
2019-05-07T09:55:58.754Z,8.60
2019-05-07T09:58:38.819Z,3.12
2019-05-07T10:01:06.472Z,6.28
2019-05-07T10:03:35.662Z,5.17
2019-05-07T10:06:07.067Z,6.95
2019-05-07T10:08:38.781Z,5.42
2019-05-07T10:11:09.500Z,5.37
2019-05-07T10:13:41.916Z,4.17
2019-05-07T10:16:20.465Z,2.87
2019-05-07T10:18:51.917Z,8.10
2019-05-07T10:21:24.147Z,5.85
2019-05-07T10:23:53.202Z,7.40
2019-05-07T10:26:22.664Z,5.97
2019-05-07T10:28:52.870Z,7.58
2019-05-07T10:31:22.372Z,4.28
2019-05-07T10:33:52.407Z,6.47
2019-05-07T10:36:24.213Z,6.28
2019-05-07T10:38:54.265Z,5.70
2019-05-07T10:41:23.623Z,7.92
2019-05-07T10:43:57.575Z,3.70
2019-05-07T10:46:31.898Z,6.35
2019-05-07T10:49:14.873Z,6.45
2019-05-07T10:51:48.061Z,6.70
2019-05-07T10:54:19.462Z,6.97
2019-05-07T10:56:52.327Z,5.03
2019-05-07T10:59:22.363Z,4.75
2019-05-07T11:02:05.947Z,6.62
2019-05-07T11:04:42.202Z,8.00
2019-05-07T11:07:11.314Z,7.72
2019-05-07T11:09:42.010Z,3.42
2019-05-07T11:12:13.800Z,7.42
2019-05-07T11:14:44.678Z,7.05
2019-05-07T11:17:23.665Z,17.23
2019-05-07T11:19:52.373Z,4.75
2019-05-07T11:22:22.122Z,4.62
2019-05-07T11:24:52.233Z,6.30
2019-05-07T11:27:22.514Z,6.30
2019-05-07T11:29:53.746Z,5.28
2019-05-07T11:32:26.005Z,6.70
2019-05-07T11:34:58.382Z,6.72
2019-05-07T11:37:27.471Z,16.85
2019-05-07T11:40:03.207Z,4.08
2019-05-07T11:42:51.978Z,4.95
2019-05-07T11:45:24.964Z,3.40
2019-05-07T11:47:54.063Z,5.58
2019-05-07T11:50:30.234Z,5.55
2019-05-07T11:53:04.140Z,4.08
2019-05-07T11:55:33.229Z,6.47
2019-05-07T11:58:02.498Z,3.12
2019-05-07T12:00:38.289Z,10.32
2019-05-07T12:03:09.942Z,5.40
2019-05-07T12:05:42.134Z,4.37
2019-05-07T12:08:13.051Z,2.92
2019-05-07T12:10:44.098Z,4.90
2019-05-07T12:13:15.738Z,3.52
2019-05-07T12:15:44.823Z,5.65
2019-05-07T12:18:15.791Z,6.12
2019-05-07T12:20:44.861Z,5.30
2019-05-07T12:23:16.411Z,5.67
2019-05-07T12:25:47.148Z,7.33
2019-05-07T12:28:16.234Z,3.58
2019-05-07T12:31:01.591Z,3.17
2019-05-07T12:33:38.512Z,5.05
2019-05-07T12:36:12.458Z,5.85
2019-05-07T12:38:42.002Z,5.95
2019-05-07T12:41:28.944Z,5.37
2019-05-07T12:43:59.548Z,4.25
2019-05-07T12:46:29.056Z,5.17
2019-05-07T12:48:58.349Z,7.03
2019-05-07T12:51:37.141Z,3.05
2019-05-07T12:54:07.770Z,3.83
2019-05-07T12:56:39.360Z,5.45
2019-05-07T12:59:12.908Z,5.87
2019-05-07T13:01:46.969Z,5.20
2019-05-07T13:04:29.836Z,4.33
2019-05-07T13:07:03.176Z,5.47
2019-05-07T13:09:32.560Z,3.33
2019-05-07T13:12:05.557Z,8.00
2019-05-07T13:14:34.660Z,12.77
2019-05-07T13:17:08.683Z,5.17
2019-05-07T13:19:52.530Z,7.08
2019-05-07T13:22:25.599Z,6.67
2019-05-07T13:24:57.187Z,8.30
2019-05-07T13:27:27.271Z,5.28
2019-05-07T13:29:56.675Z,6.55
2019-05-07T13:32:31.995Z,5.33
2019-05-07T13:35:02.668Z,4.47
2019-05-07T13:37:36.386Z,3.70
2019-05-07T13:42:52.230Z,3.20
2019-05-07T13:45:22.825Z,6.22
2019-05-07T13:47:54.565Z,9.95
2019-05-07T13:50:24.663Z,22.07
2019-05-07T13:52:57.749Z,3.40
2019-05-07T13:55:26.956Z,8.83
2019-05-07T13:58:00.065Z,8.70
2019-05-07T14:00:32.458Z,4.17
2019-05-07T14:03:06.598Z,11.83
2019-05-07T14:05:35.920Z,7.20
2019-05-07T14:08:06.138Z,7.37
2019-05-07T14:10:38.652Z,5.58
2019-05-07T14:13:14.400Z,7.35
2019-05-07T14:15:43.532Z,9.25
2019-05-07T14:18:16.442Z,6.10
2019-05-07T14:20:45.536Z,11.75
2019-05-07T14:23:14.733Z,4.40
2019-05-07T14:25:44.753Z,7.83
2019-05-07T14:28:16.533Z,2.72
2019-05-07T14:30:49.061Z,15.50
2019-05-07T14:33:22.890Z,6.25
2019-05-07T14:38:27.398Z,3.72
2019-05-07T14:40:56.323Z,5.53
2019-05-07T14:43:27.050Z,5.70
2019-05-07T14:45:56.153Z,5.65
2019-05-07T14:48:25.239Z,4.95
2019-05-07T14:50:55.271Z,5.00
2019-05-07T14:53:24.458Z,6.62
2019-05-07T14:55:53.551Z,4.97
2019-05-07T14:58:25.000Z,21.00
2019-05-07T15:00:54.097Z,6.78
2019-05-07T15:03:23.977Z,7.37
2019-05-07T15:05:57.002Z,7.25
2019-05-07T15:08:26.499Z,8.50
2019-05-07T15:10:55.591Z,5.80
2019-05-07T15:13:27.348Z,5.47
2019-05-07T15:15:56.478Z,7.87
2019-05-07T15:18:38.646Z,5.05
2019-05-07T15:21:09.706Z,5.08
2019-05-07T15:23:42.477Z,7.80
2019-05-07T15:26:12.862Z,5.25
2019-05-07T15:28:44.959Z,7.10
2019-05-07T15:31:15.563Z,5.60
2019-05-07T15:33:46.930Z,3.85
2019-05-07T15:36:16.032Z,5.30
2019-05-07T15:38:49.273Z,6.28
2019-05-07T15:41:18.321Z,7.12
2019-05-07T15:43:47.415Z,6.42
2019-05-07T15:46:17.638Z,5.10
2019-05-07T15:48:46.737Z,6.30
2019-05-07T15:51:17.074Z,5.05
2019-05-07T15:53:53.251Z,4.22
2019-05-07T15:56:21.946Z,9.98
2019-05-07T15:58:53.717Z,6.78
2019-05-07T16:01:22.868Z,6.65
2019-05-07T16:03:56.009Z,4.65
2019-05-07T16:06:32.312Z,5.92
2019-05-07T16:09:04.469Z,7.15
2019-05-07T16:11:32.849Z,6.05
2019-05-07T16:14:06.247Z,6.20
2019-05-07T16:16:47.525Z,4.50
2019-05-07T16:19:26.711Z,9.23
2019-05-07T16:21:56.572Z,19.35
2019-05-07T16:24:27.726Z,18.12
2019-05-07T16:26:56.398Z,31.05
2019-05-07T16:29:27.811Z,12.53
2019-05-07T16:31:57.906Z,19.92
2019-05-07T16:34:32.606Z,6.20
2019-05-07T16:37:03.511Z,9.23
2019-05-07T16:39:32.680Z,17.05
2019-05-07T16:42:05.713Z,12.18
2019-05-07T16:44:38.082Z,9.90
2019-05-07T16:47:09.227Z,15.90
2019-05-07T16:49:38.319Z,21.70
2019-05-07T16:52:12.012Z,12.75
2019-05-07T16:54:44.928Z,20.48
2019-05-07T16:57:16.153Z,19.00
2019-05-07T16:59:47.061Z,13.08
2019-05-07T17:02:23.454Z,7.03
2019-05-07T17:05:12.519Z,10.80
2019-05-07T17:07:45.827Z,13.10
2019-05-07T17:10:17.368Z,10.48
2019-05-07T17:12:49.130Z,19.45
2019-05-07T17:15:18.624Z,11.65
2019-05-07T17:17:49.272Z,8.35
2019-05-07T17:20:18.451Z,14.10
2019-05-07T17:22:47.546Z,17.65
2019-05-07T17:25:35.123Z,9.68
2019-05-07T17:28:07.885Z,10.03
2019-05-07T17:30:37.825Z,13.57
2019-05-07T17:33:07.174Z,10.53
2019-05-07T17:35:38.849Z,12.78
2019-05-07T17:38:12.792Z,9.60
2019-05-07T17:40:43.363Z,9.58
2019-05-07T17:43:12.459Z,5.28
2019-05-07T17:45:42.923Z,9.88
2019-05-07T17:48:12.433Z,6.05
2019-05-07T17:50:48.855Z,7.60
2019-05-07T17:53:17.949Z,8.45
2019-05-07T17:55:47.046Z,7.20
2019-05-07T17:58:16.140Z,10.00
2019-05-07T18:00:52.763Z,7.65
2019-05-07T18:03:39.398Z,14.98
2019-05-07T18:06:09.815Z,10.68
2019-05-07T18:08:44.577Z,8.15
2019-05-07T18:11:23.669Z,10.38
2019-05-07T18:13:59.028Z,9.78
2019-05-07T18:16:29.880Z,8.63
2019-05-07T18:19:01.984Z,9.13
2019-05-07T18:21:32.599Z,6.70
2019-05-07T18:24:13.053Z,7.85
2019-05-07T18:26:35.131Z,9.15
2019-05-07T18:29:04.259Z,15.25
2019-05-07T18:31:51.477Z,12.53
2019-05-07T18:34:27.845Z,13.65
2019-05-07T18:36:58.067Z,12.25
2019-05-07T18:39:27.261Z,15.53
2019-05-07T18:41:56.356Z,9.68
2019-05-07T18:44:29.172Z,11.68
2019-05-07T18:47:02.396Z,8.03
2019-05-07T18:49:31.731Z,11.18
2019-05-07T18:52:05.280Z,10.03
2019-05-07T18:54:36.345Z,7.00
2019-05-07T18:57:05.465Z,5.42
2019-05-07T18:59:36.100Z,6.53
2019-05-07T19:02:06.531Z,6.30
2019-05-07T19:04:35.617Z,7.95
2019-05-07T19:07:04.826Z,6.17
2019-05-07T19:09:34.135Z,8.20
2019-05-07T19:12:03.720Z,11.65
2019-05-07T19:14:36.604Z,9.78
2019-05-07T19:17:05.918Z,15.93
2019-05-07T19:19:35.102Z,18.20
2019-05-07T19:22:09.329Z,13.60
2019-05-07T19:24:47.139Z,15.03
2019-05-07T19:27:13.261Z,9.80
2019-05-07T19:29:45.082Z,8.58
2019-05-07T19:32:15.754Z,10.78
2019-05-07T19:34:45.549Z,7.42
2019-05-07T19:37:15.571Z,9.20
2019-05-07T19:39:45.799Z,13.25
2019-05-07T19:42:15.032Z,14.53
2019-05-07T19:44:45.493Z,11.48
2019-05-07T19:47:14.701Z,17.30
2019-05-07T19:49:44.023Z,12.90
2019-05-07T19:52:16.910Z,9.70
2019-05-07T19:54:58.826Z,15.90
2019-05-07T19:57:29.932Z,14.25
2019-05-07T20:00:00.267Z,11.73
2019-05-07T20:02:34.952Z,24.23
2019-05-07T20:05:04.272Z,35.00
2019-05-07T20:07:33.469Z,38.28
2019-05-07T20:10:16.609Z,37.65
2019-05-07T20:12:45.353Z,31.20
2019-05-07T20:15:14.326Z,29.82
2019-05-07T20:17:44.073Z,22.58
2019-05-07T20:20:12.990Z,14.78
2019-05-07T20:22:41.672Z,19.27
2019-05-07T20:25:18.975Z,11.63
2019-05-07T20:27:44.117Z,15.43
2019-05-07T20:30:16.606Z,15.43
2019-05-07T20:32:47.250Z,11.90
2019-05-07T20:35:16.982Z,9.63
2019-05-07T20:37:45.658Z,8.03
2019-05-07T20:40:14.350Z,6.05
2019-05-07T20:42:43.222Z,11.73
2019-05-07T20:45:12.325Z,7.95
2019-05-07T20:47:42.249Z,10.20
2019-05-07T20:50:13.700Z,6.33
2019-05-07T20:52:42.385Z,7.47
2019-05-07T20:55:31.515Z,9.20
2019-05-07T20:57:59.827Z,9.40
2019-05-07T21:00:29.234Z,11.68
2019-05-07T21:03:16.530Z,10.20
2019-05-07T21:05:45.315Z,6.72
2019-05-07T21:08:14.019Z,11.20
2019-05-07T21:10:44.678Z,13.13
2019-05-07T21:13:27.576Z,12.20
2019-05-07T21:15:43.749Z,9.53
2019-05-07T21:18:12.529Z,13.08
2019-05-07T21:20:42.049Z,9.38
2019-05-07T21:23:12.210Z,8.58
2019-05-07T21:25:43.445Z,7.90
2019-05-07T21:28:12.186Z,11.43
2019-05-07T21:30:42.674Z,11.83
2019-05-07T21:33:12.019Z,10.85
2019-05-07T21:35:42.761Z,10.80
2019-05-07T21:38:12.697Z,13.08
2019-05-07T21:40:42.890Z,10.82
2019-05-07T21:43:14.003Z,12.73
2019-05-07T21:45:43.358Z,9.25
2019-05-07T21:48:13.710Z,12.88
2019-05-07T21:50:43.884Z,11.00
2019-05-07T21:53:15.217Z,8.90
2019-05-07T21:55:58.882Z,14.33
2019-05-07T21:58:29.223Z,9.00
2019-05-07T22:01:02.615Z,16.23
2019-05-07T22:03:34.741Z,8.53
2019-05-07T22:06:02.622Z,9.93
2019-05-07T22:08:35.039Z,7.85
2019-05-07T22:11:04.661Z,11.03
2019-05-07T22:13:35.866Z,10.20
2019-05-07T22:16:04.012Z,12.40
2019-05-07T22:18:34.005Z,10.28
2019-05-07T22:21:03.840Z,12.75
2019-05-07T22:23:32.540Z,14.75
2019-05-07T22:26:18.586Z,10.53
2019-05-07T22:28:32.544Z,13.58
2019-05-07T22:31:15.669Z,15.95
2019-05-07T22:33:46.145Z,11.57
2019-05-07T22:36:15.090Z,11.80
2019-05-07T22:38:43.977Z,14.68
2019-05-07T22:41:15.149Z,14.40
2019-05-07T22:43:44.933Z,13.15
2019-05-07T22:46:13.865Z,12.95
2019-05-07T22:48:42.541Z,13.98
2019-05-07T22:51:12.179Z,11.60
2019-05-07T22:53:46.076Z,12.95
2019-05-07T22:56:15.040Z,13.62
2019-05-07T22:58:57.217Z,17.57
2019-05-07T23:01:25.931Z,14.50
2019-05-07T23:03:56.734Z,11.83
2019-05-07T23:06:25.030Z,11.50
2019-05-07T23:08:53.628Z,12.37
2019-05-07T23:11:22.863Z,11.63
2019-05-07T23:13:54.851Z,8.70
2019-05-07T23:16:29.377Z,8.53
2019-05-07T23:18:58.090Z,11.90
2019-05-07T23:21:26.851Z,12.88
2019-05-07T23:23:55.636Z,10.40
2019-05-07T23:26:47.001Z,8.43
2019-05-07T23:29:04.374Z,19.57
2019-05-07T23:31:33.161Z,18.98
2019-05-07T23:34:02.033Z,26.33
2019-05-07T23:36:30.941Z,24.45
2019-05-07T23:38:59.832Z,28.17
2019-05-07T23:41:30.014Z,22.37
2019-05-07T23:44:13.585Z,19.30
2019-05-07T23:46:44.696Z,22.58
2019-05-07T23:49:12.650Z,22.27
2019-05-07T23:51:42.481Z,16.85
2019-05-07T23:54:12.208Z,11.15
2019-05-07T23:56:42.817Z,13.55
2019-05-07T23:59:14.502Z,12.53
